createdAt,value
2019-01-26T00:00:55.379Z,0.00
2019-01-26T00:01:55.368Z,0.00
2019-01-26T00:02:55.345Z,0.00
2019-01-26T00:03:55.339Z,0.00
2019-01-26T00:04:55.328Z,0.00
2019-01-26T00:05:55.311Z,0.00
2019-01-26T00:06:55.299Z,0.00
2019-01-26T00:07:55.285Z,0.00
2019-01-26T00:08:55.311Z,0.00
2019-01-26T00:09:55.260Z,0.00
2019-01-26T00:10:55.248Z,0.00
2019-01-26T00:11:55.234Z,0.00
2019-01-26T00:12:55.221Z,0.00
2019-01-26T00:13:55.209Z,0.00
2019-01-26T00:14:55.195Z,0.00
2019-01-26T00:15:55.170Z,0.00
2019-01-26T00:16:55.166Z,0.00
2019-01-26T00:17:55.154Z,0.00
2019-01-26T00:18:55.148Z,0.00
2019-01-26T00:19:55.132Z,0.00
2019-01-26T00:20:55.129Z,0.00
2019-01-26T00:21:55.104Z,0.00
2019-01-26T00:22:55.090Z,0.00
2019-01-26T00:23:55.075Z,0.00
2019-01-26T00:24:55.065Z,0.00
2019-01-26T00:25:55.050Z,0.00
2019-01-26T00:26:55.035Z,0.00
2019-01-26T00:27:55.062Z,0.00
2019-01-26T00:28:55.041Z,0.00
2019-01-26T00:29:54.996Z,0.00
2019-01-26T00:30:55.022Z,0.00
2019-01-26T00:31:54.969Z,0.00
2019-01-26T00:32:54.957Z,0.00
2019-01-26T00:33:54.944Z,0.00
2019-01-26T00:34:54.931Z,0.00
2019-01-26T00:35:54.916Z,0.00
2019-01-26T00:36:54.904Z,0.00
2019-01-26T00:37:54.893Z,0.00
2019-01-26T00:38:54.880Z,0.00
2019-01-26T00:39:54.865Z,0.00
2019-01-26T00:40:54.882Z,0.00
2019-01-26T00:41:54.839Z,0.00
2019-01-26T00:42:54.871Z,0.00
2019-01-26T00:43:54.812Z,0.00
2019-01-26T00:44:54.796Z,0.00
2019-01-26T00:45:54.786Z,0.00
2019-01-26T00:46:54.774Z,0.00
2019-01-26T00:47:54.762Z,0.00
2019-01-26T00:48:54.747Z,0.00
2019-01-26T00:49:54.742Z,0.00
2019-01-26T00:50:54.722Z,0.00
2019-01-26T00:51:54.709Z,0.00
2019-01-26T00:52:54.695Z,0.00
2019-01-26T00:53:54.682Z,0.00
2019-01-26T00:54:54.678Z,0.00
2019-01-26T00:55:54.657Z,0.00
2019-01-26T00:56:54.647Z,0.00
2019-01-26T00:57:54.634Z,0.00
2019-01-26T00:58:54.686Z,0.00
2019-01-26T00:59:57.456Z,0.00
2019-01-26T01:00:54.589Z,0.00
2019-01-26T01:01:54.607Z,0.00
2019-01-26T01:02:54.564Z,0.00
2019-01-26T01:03:54.551Z,0.00
2019-01-26T01:04:54.538Z,0.00
2019-01-26T01:05:54.525Z,0.00
2019-01-26T01:06:54.511Z,0.00
2019-01-26T01:07:54.547Z,0.00
2019-01-26T01:08:54.486Z,0.00
2019-01-26T01:09:54.474Z,0.00
2019-01-26T01:10:54.461Z,0.00
2019-01-26T01:11:54.446Z,0.00
2019-01-26T01:12:54.434Z,0.00
2019-01-26T01:13:54.422Z,0.00
2019-01-26T01:14:54.411Z,0.00
2019-01-26T01:15:54.399Z,0.00
2019-01-26T01:16:54.383Z,0.00
2019-01-26T01:17:54.371Z,0.00
2019-01-26T01:18:54.391Z,0.00
2019-01-26T01:19:54.345Z,0.00
2019-01-26T01:20:54.410Z,0.00
2019-01-26T01:21:54.328Z,0.00
2019-01-26T01:22:54.306Z,0.00
2019-01-26T01:23:54.293Z,0.00
2019-01-26T01:24:54.284Z,0.00
2019-01-26T01:25:54.266Z,0.00
2019-01-26T01:26:54.255Z,0.00
2019-01-26T01:27:54.240Z,0.00
2019-01-26T01:28:54.226Z,0.00
2019-01-26T01:29:54.214Z,0.00
2019-01-26T01:30:54.226Z,0.00
2019-01-26T01:31:54.187Z,0.00
2019-01-26T01:32:54.177Z,0.00
2019-01-26T01:33:54.160Z,0.00
2019-01-26T01:34:54.181Z,0.00
2019-01-26T01:35:54.137Z,0.00
2019-01-26T01:36:54.121Z,0.00
2019-01-26T01:37:54.110Z,0.00
2019-01-26T01:38:54.096Z,0.00
2019-01-26T01:39:54.095Z,0.00
2019-01-26T01:40:54.066Z,0.00
2019-01-26T01:41:54.059Z,0.00
2019-01-26T01:42:54.036Z,0.00
2019-01-26T01:43:54.052Z,0.00
2019-01-26T01:44:54.018Z,0.00
2019-01-26T01:45:54.005Z,0.00
2019-01-26T01:46:53.992Z,0.00
2019-01-26T01:47:53.977Z,0.00
2019-01-26T01:48:53.969Z,0.00
2019-01-26T01:49:55.731Z,0.00
2019-01-26T01:50:53.943Z,0.00
2019-01-26T01:51:53.918Z,0.00
2019-01-26T01:52:53.912Z,0.00
2019-01-26T01:53:53.899Z,0.00
2019-01-26T01:54:53.889Z,0.00
2019-01-26T01:55:53.877Z,0.00
2019-01-26T01:56:53.883Z,0.00
2019-01-26T01:57:53.847Z,0.00
2019-01-26T01:58:53.836Z,0.00
2019-01-26T01:59:53.821Z,0.00
2019-01-26T02:00:53.810Z,0.00
2019-01-26T02:01:53.797Z,0.00
2019-01-26T02:02:53.786Z,0.00
2019-01-26T02:03:53.769Z,0.00
2019-01-26T02:04:53.758Z,0.00
2019-01-26T02:05:53.747Z,0.00
2019-01-26T02:06:53.732Z,0.00
2019-01-26T02:07:53.719Z,0.00
2019-01-26T02:08:53.705Z,0.00
2019-01-26T02:09:53.690Z,0.00
2019-01-26T02:10:53.679Z,0.00
2019-01-26T02:11:53.665Z,0.00
2019-01-26T02:12:53.654Z,0.00
2019-01-26T02:13:53.642Z,0.00
2019-01-26T02:14:53.628Z,0.00
2019-01-26T02:15:53.615Z,0.00
2019-01-26T02:16:53.606Z,0.00
2019-01-26T02:17:53.639Z,0.00
2019-01-26T02:18:53.578Z,0.00
2019-01-26T02:19:53.557Z,0.00
2019-01-26T02:20:53.558Z,0.00
2019-01-26T02:21:53.536Z,0.00
2019-01-26T02:22:53.536Z,0.00
2019-01-26T02:23:53.512Z,0.00
2019-01-26T02:24:53.496Z,0.00
2019-01-26T02:25:53.490Z,0.00
2019-01-26T02:26:53.474Z,0.00
2019-01-26T02:27:53.460Z,0.00
2019-01-26T02:28:53.448Z,0.00
2019-01-26T02:29:53.437Z,0.00
2019-01-26T02:30:53.425Z,0.00
2019-01-26T02:31:53.409Z,0.00
2019-01-26T02:32:54.692Z,0.00
2019-01-26T02:33:53.382Z,0.00
2019-01-26T02:34:53.374Z,0.00
2019-01-26T02:35:53.360Z,0.00
2019-01-26T02:36:53.383Z,0.00
2019-01-26T02:37:53.333Z,0.00
2019-01-26T02:38:53.321Z,0.00
2019-01-26T02:39:53.305Z,0.00
2019-01-26T02:40:56.017Z,0.00
2019-01-26T02:41:53.282Z,0.00
2019-01-26T02:42:55.829Z,0.00
2019-01-26T02:43:53.257Z,0.00
2019-01-26T02:44:53.243Z,0.00
2019-01-26T02:45:53.226Z,0.00
2019-01-26T02:46:57.925Z,0.00
2019-01-26T02:47:53.204Z,0.00
2019-01-26T02:48:53.195Z,0.00
2019-01-26T02:49:53.179Z,0.00
2019-01-26T02:50:53.166Z,0.00
2019-01-26T02:51:53.153Z,0.00
2019-01-26T02:52:53.141Z,0.00
2019-01-26T02:53:53.126Z,0.00
2019-01-26T02:54:53.114Z,0.00
2019-01-26T02:55:53.102Z,0.00
2019-01-26T02:56:53.088Z,0.00
2019-01-26T02:57:53.099Z,0.00
2019-01-26T02:58:53.063Z,0.00
2019-01-26T02:59:53.048Z,0.00
2019-01-26T03:00:53.034Z,0.00
2019-01-26T03:01:53.021Z,0.00
2019-01-26T03:02:53.000Z,0.00
2019-01-26T03:03:52.994Z,0.00
2019-01-26T03:04:52.997Z,0.00
2019-01-26T03:05:52.971Z,0.00
2019-01-26T03:06:52.957Z,0.00
2019-01-26T03:07:52.948Z,0.00
2019-01-26T03:08:52.930Z,0.00
2019-01-26T03:09:52.921Z,0.00
2019-01-26T03:10:52.906Z,0.00
2019-01-26T03:11:52.895Z,0.00
2019-01-26T03:12:52.877Z,0.00
2019-01-26T03:13:52.865Z,0.00
2019-01-26T03:14:52.851Z,0.00
2019-01-26T03:15:52.837Z,0.00
2019-01-26T03:16:52.825Z,0.00
2019-01-26T03:17:52.810Z,0.00
2019-01-26T03:18:52.799Z,0.00
2019-01-26T03:19:52.789Z,0.00
2019-01-26T03:20:52.770Z,0.00
2019-01-26T03:21:52.757Z,0.00
2019-01-26T03:22:52.746Z,0.00
2019-01-26T03:23:52.771Z,0.00
2019-01-26T03:24:52.717Z,0.00
2019-01-26T03:25:52.707Z,0.00
2019-01-26T03:26:52.694Z,0.00
2019-01-26T03:27:52.678Z,0.00
2019-01-26T03:28:52.669Z,0.00
2019-01-26T03:29:52.648Z,0.00
2019-01-26T03:30:52.645Z,0.00
2019-01-26T03:31:52.629Z,0.00
2019-01-26T03:32:53.170Z,0.00
2019-01-26T03:33:52.601Z,0.00
2019-01-26T03:34:52.585Z,0.00
2019-01-26T03:35:52.576Z,0.00
2019-01-26T03:36:52.560Z,0.00
2019-01-26T03:37:52.548Z,0.00
2019-01-26T03:38:52.533Z,0.00
2019-01-26T03:39:52.519Z,0.00
2019-01-26T03:40:52.513Z,0.00
2019-01-26T03:41:52.495Z,0.00
2019-01-26T03:42:52.503Z,0.00
2019-01-26T03:43:52.479Z,0.00
2019-01-26T03:44:52.518Z,0.00
2019-01-26T03:45:52.443Z,0.00
2019-01-26T03:46:52.429Z,0.00
2019-01-26T03:47:52.419Z,0.00
2019-01-26T03:48:52.400Z,0.00
2019-01-26T03:49:53.683Z,0.00
2019-01-26T03:50:52.383Z,0.00
2019-01-26T03:51:52.366Z,0.00
2019-01-26T03:52:52.351Z,0.00
2019-01-26T03:53:52.337Z,0.00
2019-01-26T03:54:52.321Z,0.00
2019-01-26T03:55:52.308Z,0.00
2019-01-26T03:56:52.295Z,0.00
2019-01-26T03:57:52.295Z,0.00
2019-01-26T03:58:52.282Z,0.00
2019-01-26T03:59:52.253Z,0.00
2019-01-26T04:00:52.242Z,0.00
2019-01-26T04:01:52.229Z,0.00
2019-01-26T04:02:52.218Z,0.00
2019-01-26T04:03:52.204Z,0.00
2019-01-26T04:04:52.195Z,0.00
2019-01-26T04:05:52.175Z,0.00
2019-01-26T04:06:52.170Z,0.00
2019-01-26T04:07:52.175Z,0.00
2019-01-26T04:08:52.141Z,0.00
2019-01-26T04:09:52.126Z,0.00
2019-01-26T04:10:52.123Z,0.00
2019-01-26T04:11:52.096Z,0.00
2019-01-26T04:12:52.090Z,0.00
2019-01-26T04:13:52.076Z,0.00
2019-01-26T04:14:52.056Z,0.00
2019-01-26T04:15:52.043Z,0.00
2019-01-26T04:16:52.029Z,0.00
2019-01-26T04:17:52.018Z,0.00
2019-01-26T04:18:52.003Z,0.00
2019-01-26T04:19:51.990Z,0.00
2019-01-26T04:20:51.973Z,0.00
2019-01-26T04:21:51.968Z,0.00
2019-01-26T04:22:51.997Z,0.00
2019-01-26T04:23:51.937Z,0.00
2019-01-26T04:24:51.924Z,0.00
2019-01-26T04:25:51.917Z,0.00
2019-01-26T04:26:51.899Z,0.00
2019-01-26T04:27:51.893Z,0.00
2019-01-26T04:28:51.873Z,0.00
2019-01-26T04:29:51.881Z,0.00
2019-01-26T04:30:51.845Z,0.00
2019-01-26T04:31:51.835Z,0.00
2019-01-26T04:32:51.819Z,0.00
2019-01-26T04:33:51.805Z,0.00
2019-01-26T04:34:51.791Z,0.00
2019-01-26T04:35:51.777Z,0.00
2019-01-26T04:36:51.809Z,0.00
2019-01-26T04:37:51.751Z,0.00
2019-01-26T04:38:51.738Z,0.00
2019-01-26T04:39:51.726Z,0.00
2019-01-26T04:40:51.711Z,0.00
2019-01-26T04:41:51.700Z,0.00
2019-01-26T04:42:51.707Z,0.00
2019-01-26T04:43:51.681Z,0.00
2019-01-26T04:44:51.655Z,0.00
2019-01-26T04:45:51.645Z,0.00
2019-01-26T04:46:51.633Z,0.00
2019-01-26T04:47:51.617Z,0.00
2019-01-26T04:48:51.605Z,0.00
2019-01-26T04:49:51.594Z,0.00
2019-01-26T04:50:51.583Z,0.00
2019-01-26T04:51:51.566Z,0.00
2019-01-26T04:52:51.551Z,0.00
2019-01-26T04:53:51.547Z,0.00
2019-01-26T04:54:51.538Z,0.00
2019-01-26T04:55:51.518Z,0.00
2019-01-26T04:56:51.501Z,0.00
2019-01-26T04:57:51.487Z,0.00
2019-01-26T04:58:51.475Z,0.00
2019-01-26T04:59:51.458Z,0.00
2019-01-26T05:00:51.444Z,0.00
2019-01-26T05:01:51.432Z,0.00
2019-01-26T05:02:51.465Z,0.00
2019-01-26T05:03:51.409Z,0.00
2019-01-26T05:04:51.391Z,0.00
2019-01-26T05:05:51.379Z,0.00
2019-01-26T05:06:51.370Z,0.00
2019-01-26T05:07:51.352Z,0.00
2019-01-26T05:08:51.340Z,0.00
2019-01-26T05:09:51.326Z,0.00
2019-01-26T05:10:51.311Z,0.00
2019-01-26T05:11:51.297Z,0.00
2019-01-26T05:12:51.286Z,0.00
2019-01-26T05:13:51.272Z,0.00
2019-01-26T05:14:51.259Z,0.00
2019-01-26T05:15:51.247Z,0.00
2019-01-26T05:16:51.231Z,0.00
2019-01-26T05:17:51.218Z,0.00
2019-01-26T05:18:51.203Z,0.00
2019-01-26T05:19:51.191Z,0.00
2019-01-26T05:20:51.179Z,0.00
2019-01-26T05:21:51.189Z,0.00
2019-01-26T05:22:51.178Z,0.00
2019-01-26T05:23:51.138Z,0.00
2019-01-26T05:24:51.115Z,0.00
2019-01-26T05:25:51.121Z,0.00
2019-01-26T05:26:51.102Z,0.00
2019-01-26T05:27:51.083Z,0.00
2019-01-26T05:28:51.072Z,0.00
2019-01-26T05:29:51.083Z,0.00
2019-01-26T05:30:51.048Z,0.00
2019-01-26T05:31:51.028Z,0.00
2019-01-26T05:32:51.025Z,0.00
2019-01-26T05:33:51.005Z,0.00
2019-01-26T05:34:51.009Z,0.00
2019-01-26T05:35:50.979Z,0.00
2019-01-26T05:36:50.963Z,0.00
2019-01-26T05:37:50.951Z,0.00
2019-01-26T05:38:50.938Z,0.00
2019-01-26T05:39:50.931Z,0.00
2019-01-26T05:40:50.938Z,0.00
2019-01-26T05:41:50.895Z,0.00
2019-01-26T05:42:50.901Z,0.00
2019-01-26T05:43:50.872Z,0.00
2019-01-26T05:44:50.858Z,0.00
2019-01-26T05:45:50.846Z,0.00
2019-01-26T05:46:50.834Z,0.00
2019-01-26T05:47:50.820Z,0.00
2019-01-26T05:48:50.820Z,0.00
2019-01-26T05:49:50.791Z,0.00
2019-01-26T05:50:50.784Z,0.00
2019-01-26T05:51:50.773Z,0.00
2019-01-26T05:52:50.756Z,0.00
2019-01-26T05:53:50.740Z,0.00
2019-01-26T05:54:50.728Z,0.00
2019-01-26T05:55:50.711Z,0.00
2019-01-26T05:56:50.701Z,0.00
2019-01-26T05:57:50.692Z,0.00
2019-01-26T05:58:50.673Z,0.00
2019-01-26T05:59:50.660Z,0.00
2019-01-26T06:00:50.653Z,0.00
2019-01-26T06:01:50.634Z,0.00
2019-01-26T06:02:50.627Z,0.00
2019-01-26T06:03:50.613Z,0.00
2019-01-26T06:04:50.595Z,0.00
2019-01-26T06:05:50.574Z,0.00
2019-01-26T06:06:50.568Z,0.00
2019-01-26T06:07:50.557Z,0.00
2019-01-26T06:08:50.543Z,0.00
2019-01-26T06:09:50.524Z,0.00
2019-01-26T06:10:50.517Z,0.00
2019-01-26T06:11:50.501Z,0.00
2019-01-26T06:12:50.490Z,0.00
2019-01-26T06:13:50.479Z,0.00
2019-01-26T06:14:50.465Z,0.00
2019-01-26T06:15:50.450Z,0.00
2019-01-26T06:16:50.443Z,0.00
2019-01-26T06:17:55.036Z,0.00
2019-01-26T06:18:50.409Z,0.00
2019-01-26T06:19:50.397Z,0.00
2019-01-26T06:20:50.379Z,0.00
2019-01-26T06:21:50.372Z,0.00
2019-01-26T06:22:50.350Z,0.00
2019-01-26T06:23:50.361Z,0.00
2019-01-26T06:24:50.332Z,0.00
2019-01-26T06:25:50.319Z,0.00
2019-01-26T06:26:50.306Z,0.00
2019-01-26T06:27:50.296Z,0.00
2019-01-26T06:28:50.279Z,0.00
2019-01-26T06:29:50.257Z,0.00
2019-01-26T06:30:50.251Z,4.00
2019-01-26T06:31:50.239Z,4.00
2019-01-26T06:32:50.259Z,4.00
2019-01-26T06:33:50.214Z,4.00
2019-01-26T06:34:50.204Z,4.00
2019-01-26T06:35:50.187Z,8.00
2019-01-26T06:36:50.181Z,4.00
2019-01-26T06:37:50.160Z,8.00
2019-01-26T06:38:50.145Z,8.00
2019-01-26T06:39:50.136Z,12.00
2019-01-26T06:40:50.124Z,12.00
2019-01-26T06:41:50.105Z,16.00
2019-01-26T06:42:50.110Z,20.00
2019-01-26T06:43:50.089Z,24.00
2019-01-26T06:44:50.074Z,28.00
2019-01-26T06:45:50.058Z,32.00
2019-01-26T06:46:50.041Z,36.00
2019-01-26T06:47:50.031Z,44.00
2019-01-26T06:48:50.021Z,48.00
2019-01-26T06:49:50.012Z,56.00
2019-01-26T06:50:49.991Z,60.00
2019-01-26T06:51:49.975Z,64.00
2019-01-26T06:52:49.960Z,72.00
2019-01-26T06:53:49.950Z,80.00
2019-01-26T06:54:49.942Z,88.00
2019-01-26T06:55:49.935Z,92.00
2019-01-26T06:56:49.973Z,104.00
2019-01-26T06:57:49.908Z,120.00
2019-01-26T06:58:49.887Z,132.00
2019-01-26T06:59:49.876Z,144.00
2019-01-26T07:00:49.863Z,160.00
2019-01-26T07:01:49.848Z,172.00
2019-01-26T07:02:49.836Z,184.00
2019-01-26T07:03:49.821Z,196.00
2019-01-26T07:04:49.814Z,212.00
2019-01-26T07:05:49.800Z,236.00
2019-01-26T07:06:49.788Z,260.00
2019-01-26T07:07:49.762Z,280.00
2019-01-26T07:08:49.755Z,296.00
2019-01-26T07:09:49.743Z,320.00
2019-01-26T07:10:49.732Z,328.00
2019-01-26T07:11:49.721Z,352.00
2019-01-26T07:12:49.708Z,376.00
2019-01-26T07:13:49.698Z,376.00
2019-01-26T07:14:49.685Z,388.00
2019-01-26T07:15:49.664Z,404.00
2019-01-26T07:16:49.667Z,440.00
2019-01-26T07:17:49.643Z,452.00
2019-01-26T07:18:49.633Z,468.00
2019-01-26T07:19:49.613Z,488.00
2019-01-26T07:20:49.607Z,484.00
2019-01-26T07:21:49.591Z,500.00
2019-01-26T07:22:49.578Z,488.00
2019-01-26T07:23:49.577Z,516.00
2019-01-26T07:24:49.549Z,560.00
2019-01-26T07:25:49.534Z,572.00
2019-01-26T07:26:49.529Z,612.00
2019-01-26T07:27:49.511Z,656.00
2019-01-26T07:28:49.498Z,652.00
2019-01-26T07:29:49.494Z,676.00
2019-01-26T07:30:49.467Z,676.00
2019-01-26T07:31:49.465Z,672.00
2019-01-26T07:32:49.456Z,692.00
2019-01-26T07:33:49.437Z,688.00
2019-01-26T07:34:49.423Z,684.00
2019-01-26T07:35:49.412Z,740.00
2019-01-26T07:36:49.401Z,768.00
2019-01-26T07:37:49.385Z,800.00
2019-01-26T07:38:49.367Z,840.00
2019-01-26T07:39:49.355Z,852.00
2019-01-26T07:40:49.348Z,912.00
2019-01-26T07:41:49.339Z,928.00
2019-01-26T07:42:49.321Z,1096.00
2019-01-26T07:43:49.311Z,1160.00
2019-01-26T07:44:49.300Z,1280.00
2019-01-26T07:45:49.280Z,1436.00
2019-01-26T07:46:49.323Z,1560.00
2019-01-26T07:47:49.258Z,1696.00
2019-01-26T07:48:49.269Z,1832.00
2019-01-26T07:49:49.256Z,1960.00
2019-01-26T07:50:49.212Z,2124.00
2019-01-26T07:51:49.210Z,2132.00
2019-01-26T07:52:49.190Z,2200.00
2019-01-26T07:53:49.182Z,2260.00
2019-01-26T07:54:49.180Z,2396.00
2019-01-26T07:55:49.160Z,2596.00
2019-01-26T07:56:49.144Z,2680.00
2019-01-26T07:57:49.133Z,2852.00
2019-01-26T07:58:49.115Z,3004.00
2019-01-26T07:59:49.107Z,3108.00
2019-01-26T08:00:49.126Z,3304.00
2019-01-26T08:01:49.088Z,3416.00
2019-01-26T08:02:49.076Z,3616.00
2019-01-26T08:03:49.058Z,3664.00
2019-01-26T08:04:49.097Z,3828.00
2019-01-26T08:05:49.037Z,4068.00
2019-01-26T08:06:49.027Z,4148.00
2019-01-26T08:07:49.007Z,4224.00
2019-01-26T08:08:49.003Z,4256.00
2019-01-26T08:09:49.025Z,4464.00
2019-01-26T08:10:49.003Z,4632.00
2019-01-26T08:11:48.952Z,4924.00
2019-01-26T08:12:49.010Z,5296.00
2019-01-26T08:13:48.934Z,5760.00
2019-01-26T08:14:48.940Z,5940.00
2019-01-26T08:15:48.911Z,6008.00
2019-01-26T08:16:48.904Z,5928.00
2019-01-26T08:17:48.882Z,5796.00
2019-01-26T08:18:48.879Z,6008.00
2019-01-26T08:19:48.863Z,6164.00
2019-01-26T08:20:48.856Z,6192.00
2019-01-26T08:21:48.887Z,6304.00
2019-01-26T08:22:48.829Z,6660.00
2019-01-26T08:23:48.814Z,6868.00
2019-01-26T08:24:48.799Z,7072.00
2019-01-26T08:25:48.791Z,7132.00
2019-01-26T08:26:48.798Z,7016.00
2019-01-26T08:27:48.772Z,6796.00
2019-01-26T08:28:48.759Z,6764.00
2019-01-26T08:29:48.748Z,6552.00
2019-01-26T08:30:48.742Z,6600.00
2019-01-26T08:31:48.726Z,6984.00
2019-01-26T08:32:48.714Z,7344.00
2019-01-26T08:33:48.715Z,7464.00
2019-01-26T08:34:48.721Z,7496.00
2019-01-26T08:35:48.681Z,7460.00
2019-01-26T08:36:48.664Z,7592.00
2019-01-26T08:37:48.672Z,7696.00
2019-01-26T08:38:48.693Z,7852.00
2019-01-26T08:39:48.637Z,8000.00
2019-01-26T08:40:48.617Z,8128.00
2019-01-26T08:41:48.626Z,8052.00
2019-01-26T08:42:48.616Z,8012.00
2019-01-26T08:43:48.612Z,7948.00
2019-01-26T08:44:48.583Z,8144.00
2019-01-26T08:45:48.582Z,8272.00
2019-01-26T08:46:48.562Z,8392.00
2019-01-26T08:47:48.550Z,8472.00
2019-01-26T08:48:48.543Z,8664.00
2019-01-26T08:49:48.524Z,8748.00
2019-01-26T08:50:48.523Z,8872.00
2019-01-26T08:51:48.510Z,9000.00
2019-01-26T08:52:48.500Z,9404.00
2019-01-26T08:53:48.486Z,9744.00
2019-01-26T08:54:48.478Z,9892.00
2019-01-26T08:55:48.469Z,10208.00
2019-01-26T08:56:48.503Z,10408.00
2019-01-26T08:57:48.448Z,10676.00
2019-01-26T08:58:48.438Z,10376.00
2019-01-26T08:59:48.446Z,9912.00
2019-01-26T09:00:48.474Z,9776.00
2019-01-26T09:01:48.406Z,10280.00
2019-01-26T09:02:48.391Z,10508.00
2019-01-26T09:03:48.384Z,11192.00
2019-01-26T09:04:48.364Z,11112.00
2019-01-26T09:05:48.360Z,10960.00
2019-01-26T09:06:48.366Z,10804.00
2019-01-26T09:07:48.356Z,10988.00
2019-01-26T09:08:48.362Z,10980.00
2019-01-26T09:09:48.323Z,10044.00
2019-01-26T09:10:48.313Z,9664.00
2019-01-26T09:11:48.304Z,9560.00
2019-01-26T09:12:48.293Z,9708.00
2019-01-26T09:13:48.287Z,10052.00
2019-01-26T09:14:48.274Z,10296.00
2019-01-26T09:15:48.266Z,11020.00
2019-01-26T09:16:48.256Z,11496.00
2019-01-26T09:17:48.243Z,11708.00
2019-01-26T09:18:48.259Z,12204.00
2019-01-26T09:19:48.227Z,12372.00
2019-01-26T09:20:48.217Z,12264.00
2019-01-26T09:21:48.206Z,12648.00
2019-01-26T09:22:48.200Z,11992.00
2019-01-26T09:23:48.183Z,11460.00
2019-01-26T09:24:48.178Z,11652.00
2019-01-26T09:25:48.169Z,11524.00
2019-01-26T09:26:48.161Z,11652.00
2019-01-26T09:27:48.150Z,12308.00
2019-01-26T09:28:50.809Z,12320.00
2019-01-26T09:29:48.137Z,12472.00
2019-01-26T09:30:48.131Z,12148.00
2019-01-26T09:31:48.118Z,12292.00
2019-01-26T09:32:48.130Z,12456.00
2019-01-26T09:33:48.094Z,12596.00
2019-01-26T09:34:48.092Z,13020.00
2019-01-26T09:35:48.077Z,13028.00
2019-01-26T09:36:48.068Z,13264.00
2019-01-26T09:37:48.059Z,14264.00
2019-01-26T09:38:48.049Z,14432.00
2019-01-26T09:39:48.039Z,15008.00
2019-01-26T09:40:48.029Z,17568.00
2019-01-26T09:41:48.028Z,20736.00
2019-01-26T09:42:48.017Z,20256.00
2019-01-26T09:43:48.004Z,19648.00
2019-01-26T09:44:47.997Z,18496.00
2019-01-26T09:45:47.987Z,17728.00
2019-01-26T09:46:47.979Z,18720.00
2019-01-26T09:47:47.971Z,19872.00
2019-01-26T09:48:47.962Z,19488.00
2019-01-26T09:49:47.956Z,19552.00
2019-01-26T09:50:47.948Z,20448.00
2019-01-26T09:51:47.941Z,18976.00
2019-01-26T09:52:47.933Z,19904.00
2019-01-26T09:53:47.927Z,18080.00
2019-01-26T09:54:47.925Z,18240.00
2019-01-26T09:55:47.908Z,17536.00
2019-01-26T09:56:47.903Z,16744.00
2019-01-26T09:57:47.897Z,16768.00
2019-01-26T09:58:47.958Z,17952.00
2019-01-26T09:59:47.882Z,18048.00
2019-01-26T10:00:47.875Z,17824.00
2019-01-26T10:01:47.858Z,17504.00
2019-01-26T10:02:47.862Z,17440.00
2019-01-26T10:03:49.360Z,17728.00
2019-01-26T10:04:47.847Z,17664.00
2019-01-26T10:05:47.843Z,17952.00
2019-01-26T10:06:47.843Z,17696.00
2019-01-26T10:07:47.827Z,17140.00
2019-01-26T10:08:47.840Z,16308.00
2019-01-26T10:09:47.808Z,15396.00
2019-01-26T10:10:47.817Z,15148.00
2019-01-26T10:11:47.799Z,14884.00
2019-01-26T10:12:47.792Z,13336.00
2019-01-26T10:13:47.791Z,12744.00
2019-01-26T10:14:47.795Z,12468.00
2019-01-26T10:15:47.773Z,12168.00
2019-01-26T10:16:47.764Z,12376.00
2019-01-26T10:17:47.759Z,12616.00
2019-01-26T10:18:53.561Z,12840.00
2019-01-26T10:19:47.744Z,12876.00
2019-01-26T10:20:47.737Z,13084.00
2019-01-26T10:21:47.735Z,13604.00
2019-01-26T10:22:47.723Z,14020.00
2019-01-26T10:23:47.714Z,14504.00
2019-01-26T10:24:47.728Z,14088.00
2019-01-26T10:25:48.770Z,13608.00
2019-01-26T10:26:47.700Z,13020.00
2019-01-26T10:27:47.686Z,13108.00
2019-01-26T10:28:47.678Z,13108.00
2019-01-26T10:29:47.674Z,14012.00
2019-01-26T10:30:47.664Z,14156.00
2019-01-26T10:31:47.655Z,14532.00
2019-01-26T10:32:47.696Z,14796.00
2019-01-26T10:33:47.642Z,14320.00
2019-01-26T10:34:47.635Z,14364.00
2019-01-26T10:35:47.624Z,14748.00
2019-01-26T10:36:47.622Z,15212.00
2019-01-26T10:37:47.614Z,15244.00
2019-01-26T10:38:47.626Z,14964.00
2019-01-26T10:39:47.600Z,14896.00
2019-01-26T10:40:47.617Z,15120.00
2019-01-26T10:41:47.585Z,15424.00
2019-01-26T10:42:47.584Z,15760.00
2019-01-26T10:43:47.573Z,16092.00
2019-01-26T10:44:47.830Z,15908.00
2019-01-26T10:45:47.556Z,15388.00
2019-01-26T10:46:47.552Z,15076.00
2019-01-26T10:47:47.545Z,15148.00
2019-01-26T10:48:47.536Z,15380.00
2019-01-26T10:49:47.530Z,15904.00
2019-01-26T10:50:47.526Z,16272.00
2019-01-26T10:51:47.522Z,16092.00
2019-01-26T10:52:47.508Z,15792.00
2019-01-26T10:53:47.506Z,15444.00
2019-01-26T10:54:47.499Z,15480.00
2019-01-26T10:55:47.482Z,16324.00
2019-01-26T10:56:47.484Z,17152.00
2019-01-26T10:57:47.482Z,18080.00
2019-01-26T10:58:47.471Z,17260.00
2019-01-26T10:59:47.466Z,16872.00
2019-01-26T11:00:47.461Z,17240.00
2019-01-26T11:01:47.451Z,17140.00
2019-01-26T11:02:47.439Z,16512.00
2019-01-26T11:03:47.440Z,16272.00
2019-01-26T11:04:47.478Z,15948.00
2019-01-26T11:05:47.450Z,15408.00
2019-01-26T11:06:47.420Z,15104.00
2019-01-26T11:07:47.413Z,15204.00
2019-01-26T11:08:47.409Z,15392.00
2019-01-26T11:09:47.400Z,15536.00
2019-01-26T11:10:48.497Z,15460.00
2019-01-26T11:11:49.622Z,15416.00
2019-01-26T11:12:47.382Z,15080.00
2019-01-26T11:13:47.375Z,14516.00
2019-01-26T11:14:47.367Z,14084.00
2019-01-26T11:15:47.361Z,13888.00
2019-01-26T11:16:47.354Z,13844.00
2019-01-26T11:17:47.348Z,13616.00
2019-01-26T11:18:47.336Z,13816.00
2019-01-26T11:19:47.334Z,14036.00
2019-01-26T11:20:47.387Z,15296.00
2019-01-26T11:21:47.321Z,16156.00
2019-01-26T11:22:47.304Z,17076.00
2019-01-26T11:23:47.306Z,18688.00
2019-01-26T11:24:47.300Z,19360.00
2019-01-26T11:25:47.310Z,20352.00
2019-01-26T11:26:49.368Z,20640.00
2019-01-26T11:27:47.270Z,21440.00
2019-01-26T11:28:47.273Z,22016.00
2019-01-26T11:29:47.265Z,21024.00
2019-01-26T11:30:47.259Z,22112.00
2019-01-26T11:31:47.254Z,21408.00
2019-01-26T11:32:47.303Z,22240.00
2019-01-26T11:33:47.228Z,21088.00
2019-01-26T11:34:47.234Z,20320.00
2019-01-26T11:35:47.225Z,20384.00
2019-01-26T11:36:47.219Z,22176.00
2019-01-26T11:37:47.223Z,23136.00
2019-01-26T11:38:47.209Z,24192.00
2019-01-26T11:39:47.204Z,24736.00
2019-01-26T11:40:47.198Z,25088.00
2019-01-26T11:41:47.188Z,25568.00
2019-01-26T11:42:47.175Z,24224.00
2019-01-26T11:43:47.179Z,24032.00
2019-01-26T11:44:47.594Z,23392.00
2019-01-26T11:45:47.161Z,21760.00
2019-01-26T11:46:47.161Z,21152.00
2019-01-26T11:47:47.160Z,20800.00
2019-01-26T11:48:47.148Z,19648.00
2019-01-26T11:49:47.144Z,19584.00
2019-01-26T11:50:47.137Z,20384.00
2019-01-26T11:51:47.130Z,21984.00
2019-01-26T11:52:47.150Z,21536.00
2019-01-26T11:53:47.120Z,21568.00
2019-01-26T11:54:47.115Z,22080.00
2019-01-26T11:55:47.109Z,21792.00
2019-01-26T11:56:47.105Z,19232.00
2019-01-26T11:57:47.101Z,19808.00
2019-01-26T11:58:47.094Z,19744.00
2019-01-26T11:59:47.085Z,20160.00
2019-01-26T12:00:47.084Z,21120.00
2019-01-26T12:01:47.121Z,21088.00
2019-01-26T12:02:47.128Z,22016.00
2019-01-26T12:03:47.063Z,20672.00
2019-01-26T12:04:47.054Z,19424.00
2019-01-26T12:05:47.063Z,17856.00
2019-01-26T12:06:47.052Z,16992.00
2019-01-26T12:07:47.037Z,16600.00
2019-01-26T12:08:47.037Z,15764.00
2019-01-26T12:09:47.064Z,15336.00
2019-01-26T12:10:47.024Z,15408.00
2019-01-26T12:11:47.019Z,12524.00
2019-01-26T12:12:47.010Z,13444.00
2019-01-26T12:13:47.006Z,12976.00
2019-01-26T12:14:46.999Z,12260.00
2019-01-26T12:15:46.992Z,12132.00
2019-01-26T12:16:47.006Z,11052.00
2019-01-26T12:17:46.983Z,14540.00
2019-01-26T12:18:46.975Z,15284.00
2019-01-26T12:19:46.970Z,13312.00
2019-01-26T12:20:46.974Z,15584.00
2019-01-26T12:21:46.952Z,15340.00
2019-01-26T12:22:46.952Z,14724.00
2019-01-26T12:23:46.943Z,12632.00
2019-01-26T12:24:46.934Z,15924.00
2019-01-26T12:25:46.928Z,16868.00
2019-01-26T12:26:46.921Z,17792.00
2019-01-26T12:27:46.916Z,14108.00
2019-01-26T12:28:46.909Z,13840.00
2019-01-26T12:29:46.902Z,14048.00
2019-01-26T12:30:46.932Z,14952.00
2019-01-26T12:31:46.889Z,14632.00
2019-01-26T12:32:46.898Z,14604.00
2019-01-26T12:33:46.876Z,14892.00
2019-01-26T12:34:46.869Z,14744.00
2019-01-26T12:35:46.894Z,14852.00
2019-01-26T12:36:46.860Z,14760.00
2019-01-26T12:37:46.850Z,14004.00